Time;durP1;ratioP1;P1;durP2;ratioP2;P2;SDS_P1;SDS_P2;PMS_P1;PMS_P2;Temp;Humidity;BMP_temperature;BMP_pressure;BME280_temperature;BME280_humidity;BME280_pressure;Samples;Min_cycle;Max_cycle;Signal;HPM_P1;HPM_P2
2022/02/04 00:26:03;;;;;;;23.45;13.40;;;;;;;11.27;61.18;101158.47;4988885;28;118904;-77
2022/02/04 00:28:36;;;;;;;26.05;13.45;;;;;;;11.28;61.38;101154.03;4986979;28;117117;-77
2022/02/04 00:33:33;;;;;;;22.95;12.65;;;;;;;11.30;61.02;101147.75;4988664;28;123092;-76
2022/02/04 00:36:10;;;;;;;24.13;13.40;;;;;;;11.32;60.99;101139.72;4969797;28;118311;-77
2022/02/04 00:38:41;;;;;;;25.08;12.82;;;;;;;11.31;61.24;101138.00;4986843;28;118383;-77
2022/02/04 00:41:11;;;;;;;25.77;12.25;;;;;;;11.30;61.35;101141.56;4969506;28;123201;-77
2022/02/04 00:43:39;;;;;;;22.70;12.63;;;;;;;11.31;61.22;101145.94;4986496;28;124184;-77
2022/02/04 00:49:07;;;;;;;22.88;12.35;;;;;;;11.31;61.38;101140.66;4987836;28;118897;-77
2022/02/04 00:51:49;;;;;;;24.53;12.97;;;;;;;11.32;61.33;101134.44;4987006;28;124054;-77
2022/02/04 01:13:39;;;;;;;21.45;10.65;;;;;;;11.27;61.39;101120.50;4993903;28;123109;-77
2022/02/04 01:27:12;;;;;;;19.80;10.23;;;;;;;11.20;61.09;101111.09;4998469;28;124229;-77
2022/02/04 01:29:52;;;;;;;18.45;10.27;;;;;;;11.18;61.42;101105.00;4996372;28;118719;-77
2022/02/04 01:32:19;;;;;;;20.50;10.23;;;;;;;11.19;61.22;101102.28;4996961;28;119270;-76
2022/02/04 01:34:46;;;;;;;20.30;10.48;;;;;;;11.18;61.27;101111.16;4996252;28;124293;-76
2022/02/04 01:37:14;;;;;;;22.20;11.07;;;;;;;11.20;61.15;101113.72;4980318;28;122788;-77
2022/02/04 01:39:41;;;;;;;18.55;10.30;;;;;;;11.21;61.16;101111.03;4997427;28;117810;-77
2022/02/04 01:42:08;;;;;;;21.33;10.57;;;;;;;11.23;61.19;101108.31;4997079;28;117143;-77
2022/02/04 01:44:35;;;;;;;19.27;10.85;;;;;;;11.25;61.28;101106.44;4979089;28;123139;-77
2022/02/04 01:47:03;;;;;;;18.13;9.95;;;;;;;11.25;60.97;101101.16;4997845;28;124158;-76
2022/02/04 01:49:30;;;;;;;17.20;9.88;;;;;;;11.25;61.42;101101.16;4997728;28;118938;-77
2022/02/04 01:51:57;;;;;;;18.67;10.05;;;;;;;11.26;61.21;101102.84;4979494;28;117147;-77
2022/02/04 01:54:24;;;;;;;19.45;9.40;;;;;;;11.25;60.99;101106.44;4995131;28;124015;-77
2022/02/04 01:56:51;;;;;;;18.08;9.40;;;;;;;11.25;61.02;101112.59;4994837;28;122038;-77
2022/02/04 01:59:19;;;;;;;18.38;10.13;;;;;;;11.27;61.19;101109.91;4995997;28;119751;-76
2022/02/04 02:01:46;;;;;;;16.77;9.65;;;;;;;11.28;61.02;101108.94;4995609;28;120102;-77
2022/02/04 02:04:14;;;;;;;17.40;9.85;;;;;;;11.27;60.97;101110.75;4997829;28;123247;-76
2022/02/04 02:06:47;;;;;;;17.00;9.23;;;;;;;11.28;61.03;101106.28;4996201;28;122774;-77
2022/02/04 02:09:14;;;;;;;18.30;9.50;;;;;;;11.29;61.22;101108.03;4997740;28;118808;-77
2022/02/04 02:11:43;;;;;;;17.20;8.80;;;;;;;11.28;60.98;101107.19;4998770;28;118791;-76
2022/02/04 02:14:13;;;;;;;16.90;9.43;;;;;;;11.27;61.10;101105.44;4995816;28;123357;-76
2022/02/04 02:44:16;;;;;;;15.88;7.95;;;;;;;11.20;61.19;101092.53;4988506;28;118034;-77
2022/02/04 02:47:06;;;;;;;16.20;7.63;;;;;;;11.20;61.08;101082.78;4986365;28;124219;-76
2022/02/04 02:50:02;;;;;;;13.85;7.60;;;;;;;11.22;60.82;101074.75;4989322;28;123989;-77
2022/02/04 02:55:22;;;;;;;14.85;7.60;;;;;;;11.23;60.91;101073.84;4987774;28;119296;-77
2022/02/04 03:00:56;;;;;;;;;;;;;;;11.22;60.81;101075.59;4982473;28;123595;-77
2022/02/04 03:03:27;;;;;;;14.63;7.22;;;;;;;11.24;60.98;101067.59;4988157;28;118571;-76
2022/02/04 03:05:54;;;;;;;15.27;7.63;;;;;;;11.23;60.69;101065.88;4987473;28;118053;-75
2022/02/04 03:08:21;;;;;;;12.10;7.13;;;;;;;11.22;60.83;101059.69;4987462;28;123157;-77
2022/02/04 03:10:53;;;;;;;14.20;7.30;;;;;;;11.23;60.74;101055.28;4987990;28;124259;-76
2022/02/04 03:13:26;;;;;;;14.05;7.55;;;;;;;11.24;61.02;101052.53;4986258;28;119462;-76
2022/02/04 03:16:03;;;;;;;14.95;7.53;;;;;;;11.25;60.74;101053.41;4988762;28;117992;-77
2022/02/04 03:18:35;;;;;;;11.55;6.90;;;;;;;11.26;60.88;101049.81;4987331;28;123591;-77
2022/02/04 03:21:26;;;;;;;12.60;6.80;;;;;;;11.27;60.81;101056.88;4987348;28;123707;-77
2022/02/04 03:23:57;;;;;;;14.82;7.07;;;;;;;11.27;60.46;101052.41;4988749;28;119106;-77
2022/02/04 03:26:28;;;;;;;12.48;6.78;;;;;;;11.27;60.74;101046.25;4984799;28;119016;-76
2022/02/04 03:28:55;;;;;;;11.98;6.35;;;;;;;11.28;60.76;101043.53;4987033;28;123777;-77
2022/02/04 03:31:25;;;;;;;11.88;6.45;;;;;;;11.30;60.92;101040.78;4986994;28;122670;-77
2022/02/04 03:33:52;;;;;;;12.88;7.15;;;;;;;11.30;60.89;101040.78;4987253;28;117442;-77
2022/02/04 03:36:19;;;;;;;11.77;6.55;;;;;;;11.31;60.94;101037.22;4989061;28;118719;-77
2022/02/04 03:38:46;;;;;;;10.57;6.22;;;;;;;11.31;60.74;101031.94;4988142;28;123779;-77
2022/02/04 03:41:13;;;;;;;13.93;6.55;;;;;;;11.32;60.41;101033.66;4986408;28;123179;-76
2022/02/04 03:43:41;;;;;;;13.63;6.57;;;;;;;11.33;60.51;101040.66;4986254;28;119275;-77
2022/02/04 03:46:08;;;;;;;10.98;6.03;;;;;;;11.33;60.71;101040.66;4986562;28;119220;-76
2022/02/04 03:48:35;;;;;;;12.75;6.85;;;;;;;11.34;60.60;101031.81;4986362;28;123371;-76
2022/02/04 03:51:03;;;;;;;10.55;6.25;;;;;;;11.36;60.79;101019.34;4988013;28;123001;-76
2022/02/04 03:53:30;;;;;;;11.25;5.90;;;;;;;11.37;60.51;101022.84;4988329;28;119287;-76
2022/02/04 03:55:58;;;;;;;12.80;6.13;;;;;;;11.37;60.38;101010.44;4987186;28;119666;-76
2022/02/04 03:58:25;;;;;;;10.90;6.07;;;;;;;11.37;60.53;101015.72;4987633;28;124491;-77
2022/02/04 04:00:53;;;;;;;13.50;6.22;;;;;;;11.38;60.39;101017.47;4986978;28;123908;-77
2022/02/04 04:03:20;;;;;;;10.50;6.10;;;;;;;11.37;60.31;101018.38;4986139;28;117975;-76
2022/02/04 04:05:49;;;;;;;9.73;5.53;;;;;;;11.36;60.31;101014.03;4986621;28;118452;-77
2022/02/04 04:08:18;;;;;;;11.65;6.50;;;;;;;11.36;60.25;101021.97;4985690;28;123515;-77
2022/02/04 04:10:45;;;;;;;11.98;6.10;;;;;;;11.34;60.23;101015.88;4986326;28;124098;-76
2022/02/04 04:13:14;;;;;;;9.40;5.50;;;;;;;11.31;60.31;101021.31;4986821;28;118204;-77
2022/02/04 04:15:41;;;;;;;11.07;6.25;;;;;;;11.30;60.23;101024.88;4986764;28;117133;-77
2022/02/04 04:18:12;;;;;;;11.48;6.13;;;;;;;11.30;60.29;101015.16;4970005;28;123441;-76
2022/02/04 04:20:41;;;;;;;11.00;5.78;;;;;;;11.29;60.30;101012.59;4983643;28;123926;-77
2022/02/04 04:23:09;;;;;;;10.18;5.80;;;;;;;11.29;60.47;101017.88;4986643;28;118233;-76
2022/02/04 04:25:37;;;;;;;9.20;5.28;;;;;;;11.28;60.24;101016.16;4988165;28;117985;-75
2022/02/04 04:28:05;;;;;;;10.35;5.63;;;;;;;11.29;60.55;101007.28;4969932;28;122060;-77
2022/02/04 04:30:36;;;;;;;9.90;5.78;;;;;;;11.29;60.20;101020.53;4970074;28;122985;-77
2022/02/04 04:33:03;;;;;;;11.85;6.50;;;;;;;11.29;60.22;101012.59;4987650;28;121484;-76
2022/02/04 04:35:31;;;;;;;10.70;5.28;;;;;;;11.29;60.33;101012.59;4986535;28;119653;-76
2022/02/04 04:38:14;;;;;;;10.30;5.40;;;;;;;11.29;60.37;101017.88;4986169;28;124364;-77
2022/02/04 04:43:58;;;;;;;10.10;5.95;;;;;;;11.26;60.41;101023.31;4949912;28;118958;-76
2022/02/04 05:30:22;;;;;;;8.80;4.50;;;;;;;11.24;60.33;100982.75;4985763;28;119718;-77
2022/02/04 05:32:49;;;;;;;6.85;4.38;;;;;;;11.24;60.13;100977.44;5002835;28;125171;-76
2022/02/04 05:35:20;;;;;;;7.72;4.25;;;;;;;11.24;60.24;100972.16;4986317;28;123550;-77
2022/02/04 05:37:50;;;;;;;7.65;3.95;;;;;;;11.27;60.22;100964.06;4985484;28;119224;-76
2022/02/04 05:40:20;;;;;;;7.03;4.15;;;;;;;11.29;60.01;100970.16;4985451;28;118703;-77
2022/02/04 05:43:25;;;;;;;8.32;3.85;;;;;;;11.30;60.36;100961.25;4985932;28;123989;-77
2022/02/04 05:45:43;;;;;;;6.93;3.90;;;;;;;11.32;60.20;100961.19;4984128;28;124076;-77
2022/02/04 05:48:10;;;;;;;7.68;4.03;;;;;;;11.34;60.40;100970.81;4985492;28;119046;-77
2022/02/04 05:50:52;;;;;;;5.80;3.50;;;;;;;11.35;60.05;100959.25;4985331;28;118126;-77
2022/02/04 05:53:25;;;;;;;6.78;3.50;;;;;;;11.37;59.93;100957.41;4968127;28;124069;-76
2022/02/04 05:56:00;;;;;;;8.15;3.85;;;;;;;11.38;59.95;100959.13;4985220;28;121964;-76
2022/02/04 05:58:41;;;;;;;6.53;3.50;;;;;;;11.40;59.93;100951.97;4985075;28;118669;-77
2022/02/04 06:22:26;;;;;;;;;;;;;;;11.38;60.01;100937.91;4989807;28;119349;-76
2022/02/04 06:24:54;;;;;;;6.65;3.28;;;;;;;11.39;59.67;100944.91;4973483;28;125385;-76
2022/02/04 06:27:24;;;;;;;7.07;3.38;;;;;;;11.41;60.02;100947.50;4991372;28;124030;-76
2022/02/04 06:29:53;;;;;;;5.80;3.00;;;;;;;11.42;59.84;100950.09;4991291;28;119724;-76
2022/02/04 06:32:20;;;;;;;4.68;2.90;;;;;;;11.43;60.12;100951.81;4990818;28;116974;-77
2022/02/04 06:34:48;;;;;;;5.28;2.70;;;;;;;11.45;59.88;100954.38;4990152;28;124036;-77
2022/02/04 06:37:15;;;;;;;4.07;2.40;;;;;;;11.47;59.70;100958.69;4989386;28;122098;-77
2022/02/04 06:39:43;;;;;;;5.88;3.03;;;;;;;11.48;59.75;100959.56;4989945;28;119537;-76
2022/02/04 06:42:10;;;;;;;6.35;2.80;;;;;;;11.47;59.70;100964.00;4973694;28;119604;-77
2022/02/04 06:44:37;;;;;;;5.20;2.90;;;;;;;11.46;59.75;100962.28;4988725;28;123401;-75
2022/02/04 06:47:04;;;;;;;5.88;2.90;;;;;;;11.47;60.03;100964.00;4991482;28;124384;-76
2022/02/04 06:49:31;;;;;;;5.70;2.85;;;;;;;11.47;59.92;100958.69;4991116;28;118950;-76
2022/02/04 06:51:58;;;;;;;5.65;3.08;;;;;;;11.47;59.94;100958.69;4989237;28;117987;-77
2022/02/04 06:54:26;;;;;;;4.47;2.80;;;;;;;11.48;59.94;100957.75;4988638;28;123689;-76
2022/02/04 06:56:54;;;;;;;4.78;2.80;;;;;;;11.47;59.92;100950.75;4988375;28;122496;-77
2022/02/04 06:59:21;;;;;;;4.72;3.00;;;;;;;11.47;59.83;100953.41;4989865;28;119182;-77
2022/02/04 07:01:48;;;;;;;4.15;2.72;;;;;;;11.47;60.01;100953.41;4990051;28;118445;-77
2022/02/04 07:04:16;;;;;;;5.10;2.90;;;;;;;11.46;60.08;100956.97;4988775;28;123264;-77
2022/02/04 07:06:51;;;;;;;4.10;2.70;;;;;;;11.46;59.95;100951.66;4988977;28;123720;-77
2022/02/04 07:15:40;;;;;;;6.03;2.72;;;;;;;11.40;59.72;100959.91;4987658;28;124379;-76
2022/02/04 07:19:58;;;;;;;4.68;2.70;;;;;;;11.34;60.37;100957.56;5003859;28;119602;-76
2022/02/04 07:22:27;;;;;;;4.97;2.75;;;;;;;11.32;60.38;100954.13;5005477;28;118252;-77
2022/02/04 07:24:59;;;;;;;5.40;2.97;;;;;;;11.28;60.52;100957.81;4989068;28;123030;-77
2022/02/04 07:27:27;;;;;;;4.85;2.50;;;;;;;11.26;60.54;100951.72;5002658;28;124291;-75
2022/02/04 07:29:55;;;;;;;4.35;2.67;;;;;;;11.25;60.50;100952.69;4994591;28;118645;-77
2022/02/04 07:32:31;;;;;;;4.90;2.67;;;;;;;11.22;60.78;100936.91;4990072;28;118784;-77
2022/02/04 07:43:03;;;;;;;6.25;3.05;;;;;;;11.16;61.03;100921.28;4987370;28;118210;-76
2022/02/04 07:45:33;;;;;;;5.80;3.30;;;;;;;11.17;61.09;100922.97;4989669;28;124800;-77
2022/02/04 07:48:02;;;;;;;5.75;3.25;;;;;;;11.15;61.03;100919.56;4987470;28;124181;-77
2022/02/04 07:50:29;;;;;;;5.63;2.80;;;;;;;11.16;61.20;100918.63;4987674;28;119457;-77
2022/02/04 07:52:57;;;;;;;7.90;2.97;;;;;;;11.17;61.31;100912.38;4987864;28;117356;-77
2022/02/04 07:55:25;;;;;;;5.03;2.70;;;;;;;11.15;61.23;100904.53;4987230;28;123812;-77
2022/02/04 07:57:52;;;;;;;6.05;3.38;;;;;;;11.13;61.10;100901.06;4988255;28;124133;-77
2022/02/04 08:00:19;;;;;;;5.22;3.10;;;;;;;11.13;61.22;100897.56;5003186;28;120750;-76
2022/02/04 08:02:48;;;;;;;5.57;3.15;;;;;;;11.13;61.28;100902.84;4987175;28;120025;-77
2022/02/04 08:05:19;;;;;;;5.20;2.90;;;;;;;11.15;61.15;100901.00;4986464;28;124100;-77
2022/02/04 08:07:59;;;;;;;5.95;2.95;;;;;;;11.16;61.48;100900.06;4986331;28;124257;-77
2022/02/04 08:26:17;;;;;;;5.95;3.60;;;;;;;11.19;61.48;100873.41;4986010;28;123201;-75
2022/02/04 08:37:49;;;;;;;6.10;4.03;;;;;;;11.23;61.94;100880.31;4949122;28;123242;-77
2022/02/04 08:55:59;;;;;;;7.97;4.70;;;;;;;11.36;61.61;100876.13;5002803;28;118747;-77
2022/02/04 09:01:03;;;;;;;8.10;5.00;;;;;;;11.44;61.79;100868.66;4987514;28;123973;-77
2022/02/04 09:04:04;;;;;;;9.27;4.75;;;;;;;11.46;61.68;100877.41;4986416;28;119360;-77
2022/02/04 09:06:26;;;;;;;6.68;4.35;;;;;;;11.48;61.40;100870.22;4990737;28;118573;-77
2022/02/04 09:08:57;;;;;;;6.15;4.22;;;;;;;11.50;61.58;100872.81;4986117;28;123693;-76
2022/02/04 09:17:01;;;;;;;7.68;4.63;;;;;;;11.54;61.57;100862.91;4986129;28;119545;-77
2022/02/04 09:19:41;;;;;;;6.63;4.38;;;;;;;11.55;61.60;100856.69;4986845;28;124299;-77
2022/02/04 09:24:46;;;;;;;7.00;4.45;;;;;;;11.58;61.48;100844.09;4985400;28;118965;-78
2022/02/04 09:27:13;;;;;;;8.25;4.85;;;;;;;11.57;61.56;100852.16;4986467;28;118400;-77
2022/02/04 09:29:41;;;;;;;6.07;4.10;;;;;;;11.58;61.58;100848.56;4985938;28;124130;-77
2022/02/04 09:32:08;;;;;;;6.63;4.40;;;;;;;11.57;61.43;100841.56;4969309;28;123709;-78
2022/02/04 09:34:35;;;;;;;6.85;4.40;;;;;;;11.58;62.25;100848.56;4985860;28;119091;-77
2022/02/04 09:37:22;;;;;;;5.78;4.15;;;;;;;11.59;61.63;100837.03;4985486;28;119600;-77
2022/02/04 09:39:49;;;;;;;6.45;4.13;;;;;;;11.59;61.60;100834.38;4985574;28;125056;-77
2022/02/04 09:42:16;;;;;;;6.25;4.10;;;;;;;11.61;61.69;100835.16;4986724;28;123443;-77
2022/02/04 09:44:48;;;;;;;6.55;4.35;;;;;;;11.62;61.97;100823.59;4989372;28;119978;-77
2022/02/04 09:47:20;;;;;;;7.70;4.28;;;;;;;11.63;61.99;100815.56;4988802;28;120154;-77
2022/02/04 09:50:19;;;;;;;5.72;3.85;;;;;;;11.64;61.67;100805.81;4988868;28;123079;-77
2022/02/04 10:04:36;;;;;;;6.30;3.92;;;;;;;11.69;61.93;100787.88;4989611;28;122791;-76
2022/02/04 10:12:50;;;;;;;6.78;4.05;;;;;;;11.72;61.89;100777.13;4989614;28;123932;-77
2022/02/04 10:15:37;;;;;;;5.80;4.00;;;;;;;11.74;62.06;100779.69;4989844;28;123730;-77
2022/02/04 10:18:11;;;;;;;5.97;3.88;;;;;;;11.76;62.07;100778.66;4990134;28;118662;-76
2022/02/04 10:20:39;;;;;;;5.93;4.07;;;;;;;11.81;62.03;100786.38;4992262;28;120256;-77
2022/02/04 10:23:07;;;;;;;6.45;4.05;;;;;;;11.83;62.03;100789.84;4975381;28;123114;-77
2022/02/04 10:25:41;;;;;;;7.55;4.03;;;;;;;11.86;61.96;100779.91;4991742;28;123892;-77
2022/02/04 10:28:24;;;;;;;;;;;;;;;11.86;61.74;100779.06;4991728;28;120593;-77
2022/02/04 10:31:08;;;;;;;5.05;3.80;;;;;;;11.89;61.97;100773.59;5007331;28;118096;-78
2022/02/04 10:33:57;;;;;;;5.32;4.10;;;;;;;11.90;61.72;100777.13;4972252;28;123790;-77
2022/02/04 10:36:47;;;;;;;4.40;3.78;;;;;;;11.92;61.92;100756.69;4979075;28;124255;-77
2022/02/04 10:42:27;;;;;;;5.25;3.80;;;;;;;11.98;61.78;100745.72;4988608;28;120258;-76
2022/02/04 10:47:39;;;;;;;5.07;3.30;;;;;;;12.02;61.89;100742.00;4989465;28;124205;-77
2022/02/04 10:56:21;;;;;;;4.72;3.25;;;;;;;12.04;61.65;100718.88;4987447;28;123324;-77
2022/02/04 11:02:06;;;;;;;5.22;3.53;;;;;;;12.10;62.12;100710.59;4988657;28;119730;-77
2022/02/04 11:04:45;;;;;;;5.07;3.30;;;;;;;12.15;61.85;100705.91;4988217;28;118050;-78
2022/02/04 11:07:37;;;;;;;7.32;3.00;;;;;;;12.18;62.23;100700.41;4986852;28;122989;-78
2022/02/04 11:55:00;;;;;;;3.72;2.53;;;;;;;12.95;60.91;100573.84;4946556;28;125248;-76
2022/02/04 11:57:34;;;;;;;4.75;2.50;;;;;;;12.95;60.70;100579.16;4964494;28;118795;-76
2022/02/04 12:00:16;;;;;;;3.80;2.28;;;;;;;12.94;60.62;100572.16;4986278;28;118713;-76
2022/02/04 12:02:50;;;;;;;3.22;2.38;;;;;;;12.93;60.57;100559.78;4987931;28;123846;-77
2022/02/04 12:05:17;;;;;;;3.88;2.65;;;;;;;12.95;60.50;100563.22;4987050;28;124016;-76
2022/02/04 12:07:57;;;;;;;3.67;2.47;;;;;;;12.94;60.36;100556.22;4970354;28;118845;-76
2022/02/04 12:10:26;;;;;;;3.33;2.40;;;;;;;12.96;60.46;100549.00;4986067;28;119154;-77
2022/02/04 12:12:58;;;;;;;3.13;2.35;;;;;;;12.98;60.44;100541.78;4986275;28;122938;-76
2022/02/04 12:15:47;;;;;;;2.90;2.20;;;;;;;13.00;60.22;100537.22;4986207;28;124194;-76
2022/02/04 12:18:20;;;;;;;3.72;2.33;;;;;;;13.03;60.22;100541.50;4986379;28;118547;-76
2022/02/04 12:20:59;;;;;;;4.53;2.25;;;;;;;13.02;59.86;100543.31;4987254;28;119157;-77
2022/02/04 12:23:26;;;;;;;3.28;2.15;;;;;;;13.05;60.01;100528.94;4986827;28;123422;-76
2022/02/04 12:26:04;;;;;;;3.78;1.83;;;;;;;13.04;59.69;100525.44;4986975;28;123639;-76
2022/02/04 12:28:40;;;;;;;2.42;1.73;;;;;;;13.02;59.40;100527.34;4985951;28;119667;-77
2022/02/04 12:31:09;;;;;;;2.95;1.50;;;;;;;13.03;59.52;100529.06;4986294;28;118958;-76
2022/02/04 12:33:49;;;;;;;2.42;1.58;;;;;;;13.04;59.32;100517.47;4987771;28;124268;-76
2022/02/04 12:36:24;;;;;;;2.40;1.75;;;;;;;13.07;59.39;100499.63;4987290;28;124358;-76
2022/02/04 12:38:52;;;;;;;;;;;;;;;13.07;59.72;100489.84;4989501;28;119678;-77
2022/02/04 12:41:20;;;;;;;3.08;1.63;;;;;;;13.10;59.33;100487.00;4987350;28;119699;-77
2022/02/04 12:43:50;;;;;;;2.80;1.70;;;;;;;13.11;59.20;100479.88;4987406;28;123837;-77
2022/02/04 12:46:18;;;;;;;4.32;2.03;;;;;;;13.12;59.09;100486.91;4986881;28;122230;-77
2022/02/04 12:49:01;;;;;;;3.50;1.77;;;;;;;13.11;58.93;100486.06;4986214;28;119202;-77
2022/02/04 12:51:59;;;;;;;2.38;1.80;;;;;;;13.13;58.87;100480.63;4986970;28;117067;-77
2022/02/04 12:54:42;;;;;;;4.40;1.92;;;;;;;13.12;58.98;100468.31;4985950;28;123201;-77
2022/02/04 13:08:23;;;;;;;2.90;1.98;;;;;;;12.97;58.33;100455.00;4987483;28;123686;-77
2022/02/04 13:11:10;;;;;;;5.15;2.50;;;;;;;12.95;58.34;100450.72;4985525;28;119375;-76
2022/02/04 13:16:09;;;;;;;3.65;2.40;;;;;;;12.96;58.15;100437.34;4987310;28;123615;-77
2022/02/04 13:18:36;;;;;;;3.38;2.30;;;;;;;12.98;58.38;100443.41;4985285;28;123385;-77
2022/02/04 13:21:04;;;;;;;4.18;2.80;;;;;;;12.99;58.24;100442.44;4969017;28;119617;-75
2022/02/04 13:23:32;;;;;;;4.97;2.58;;;;;;;12.99;57.81;100415.88;4987291;28;119603;-76
2022/02/04 13:26:03;;;;;;;3.83;2.40;;;;;;;12.98;58.05;100411.53;4985537;28;122820;-77
2022/02/04 13:28:39;;;;;;;4.47;2.67;;;;;;;12.96;57.91;100410.75;4968935;28;123909;-76
2022/02/04 13:31:10;;;;;;;4.85;2.65;;;;;;;12.93;58.03;100410.94;4985711;28;119888;-76
2022/02/04 13:33:44;;;;;;;4.63;2.75;;;;;;;12.94;57.89;100404.69;4985849;28;118004;-76
2022/02/04 13:36:32;;;;;;;5.75;2.60;;;;;;;12.94;57.92;100396.72;4985009;28;123661;-75
2022/02/04 13:39:44;;;;;;;4.47;2.90;;;;;;;12.92;57.79;100397.75;4985653;28;122794;-76
2022/02/04 13:42:28;;;;;;;4.65;2.92;;;;;;;12.90;57.90;100395.16;4985550;28;117674;-76
2022/02/04 13:45:04;;;;;;;4.72;2.97;;;;;;;12.88;57.86;100397.06;4985495;28;117794;-76
2022/02/04 13:48:00;;;;;;;;;;;;;;;12.86;58.14;100393.66;4983568;28;123844;-76
2022/02/04 13:50:41;;;;;;;5.13;2.90;;;;;;;12.85;58.02;100391.97;4985417;28;122208;-75
2022/02/04 13:54:02;;;;;;;7.18;3.15;;;;;;;12.82;57.94;100386.84;4969366;28;118713;-76
2022/02/04 13:56:28;;;;;;;5.22;3.20;;;;;;;12.79;57.80;100379.03;4981113;28;119384;-76
2022/02/04 13:59:17;;;;;;;6.70;3.45;;;;;;;12.74;57.83;100378.50;4985891;28;124500;-75
2022/02/04 14:01:54;;;;;;;5.88;3.38;;;;;;;12.68;57.85;100379.72;4984761;28;123169;-76
2022/02/04 14:04:22;;;;;;;6.00;3.38;;;;;;;12.61;58.03;100387.19;4984251;28;118224;-76
2022/02/04 14:07:06;;;;;;;5.85;3.70;;;;;;;12.54;58.14;100383.19;4986729;28;119354;-76
2022/02/04 14:09:37;;;;;;;5.72;3.40;;;;;;;12.50;58.21;100380.84;4986089;28;124720;-76
2022/02/04 14:12:15;;;;;;;6.28;3.65;;;;;;;12.44;58.22;100371.44;4986534;28;124740;-76
2022/02/04 14:14:43;;;;;;;5.78;3.60;;;;;;;12.40;58.36;100372.56;4984627;28;120020;-76
2022/02/04 14:17:10;;;;;;;5.88;3.70;;;;;;;12.33;58.19;100373.88;4985169;28;119134;-75
2022/02/04 14:19:37;;;;;;;5.90;3.42;;;;;;;12.25;58.34;100351.28;4984726;28;123021;-76
2022/02/04 14:22:05;;;;;;;5.70;3.28;;;;;;;12.22;58.57;100350.63;4985912;28;123923;-74
2022/02/04 14:24:32;;;;;;;8.38;3.70;;;;;;;12.20;58.85;100350.69;4984960;28;117528;-76
2022/02/04 14:26:59;;;;;;;6.78;3.30;;;;;;;12.18;58.72;100343.78;4984476;28;118330;-76
2022/02/04 14:29:42;;;;;;;8.32;3.70;;;;;;;12.15;58.65;100343.97;4968887;28;123948;-75
2022/02/04 14:32:19;;;;;;;7.43;3.63;;;;;;;12.10;58.79;100352.22;4972095;28;123473;-76
2022/02/04 14:35:00;;;;;;;5.15;3.22;;;;;;;12.05;58.77;100351.63;4988662;28;119401;-76
2022/02/04 14:51:45;;;;;;;7.05;3.40;;;;;;;11.73;59.61;100322.50;4989214;28;123796;-77
2022/02/04 15:00:13;;;;;;;7.57;3.33;;;;;;;11.67;59.56;100322.84;4987909;28;117357;-76
2022/02/04 15:02:44;;;;;;;5.43;3.30;;;;;;;11.67;59.93;100322.84;4986940;28;123423;-76
2022/02/04 15:05:16;;;;;;;5.82;3.28;;;;;;;11.68;59.80;100329.88;4986548;28;124235;-77
2022/02/04 15:07:45;;;;;;;6.68;3.15;;;;;;;11.68;59.98;100329.88;4987224;28;120026;-76
2022/02/04 15:10:25;;;;;;;5.22;3.10;;;;;;;11.67;60.05;100322.84;4988295;28;119348;-77
2022/02/04 15:12:53;;;;;;;6.28;3.40;;;;;;;11.67;60.29;100344.91;4987761;28;123641;-77
2022/02/04 15:15:21;;;;;;;4.63;2.65;;;;;;;11.68;60.41;100348.44;4987995;28;123628;-77
2022/02/04 15:17:49;;;;;;;5.50;3.00;;;;;;;11.65;60.02;100452.91;4987830;28;118678;-79
2022/02/04 15:20:16;;;;;;;2.95;1.10;;;;;;;11.59;59.66;100474.47;4988035;28;118817;-77
2022/02/04 15:22:43;;;;;;;1.75;0.93;;;;;;;11.38;58.82;100481.81;4988103;28;123757;-77
2022/02/04 15:25:19;;;;;;;2.55;0.75;;;;;;;11.12;58.66;100495.63;4971810;28;123817;-77
2022/02/04 15:28:06;;;;;;;0.90;0.63;;;;;;;10.86;58.37;100511.06;4971124;28;118475;-78
2022/02/04 15:30:37;;;;;;;1.25;0.75;;;;;;;10.55;58.37;100528.53;4987846;28;119286;-78
2022/02/04 15:33:06;;;;;;;1.50;0.93;;;;;;;10.30;58.23;100550.94;4986930;28;123306;-78
2022/02/04 15:35:33;;;;;;;0.90;0.63;;;;;;;10.07;58.40;100569.66;4987569;28;124392;-77
2022/02/04 15:38:00;;;;;;;1.55;0.70;;;;;;;9.86;58.48;100567.09;4988637;28;119681;-77
2022/02/04 15:40:28;;;;;;;0.70;0.60;;;;;;;9.69;58.67;100578.44;4989110;28;118869;-77
2022/02/04 15:42:58;;;;;;;0.63;0.57;;;;;;;9.54;58.86;100571.22;4988561;28;123673;-77
2022/02/04 15:48:34;;;;;;;0.80;0.60;;;;;;;9.27;59.03;100599.75;4986694;28;119244;-77
2022/02/04 15:51:32;;;;;;;1.33;0.60;;;;;;;9.10;58.96;100619.81;4987992;28;118956;-77
2022/02/04 15:54:19;;;;;;;0.73;0.47;;;;;;;8.96;59.57;100627.44;4989255;28;124171;-77
2022/02/04 16:02:23;;;;;;;0.82;0.43;;;;;;;8.66;59.60;100656.81;4987144;28;119895;-77
2022/02/04 16:04:50;;;;;;;0.60;0.50;;;;;;;8.57;59.66;100659.84;4987221;28;123811;-77
2022/02/04 16:07:19;;;;;;;0.73;0.50;;;;;;;8.53;59.50;100692.56;4987276;28;123765;-77
2022/02/04 16:09:51;;;;;;;0.93;0.70;;;;;;;8.46;59.85;100706.94;4986832;28;118410;-77
2022/02/04 16:12:24;;;;;;;1.25;0.60;;;;;;;8.43;59.79;100712.31;4988323;28;118918;-77
2022/02/04 16:15:18;;;;;;;0.60;0.50;;;;;;;8.39;59.84;100722.94;4985347;28;123212;-77
2022/02/04 16:17:53;;;;;;;2.17;0.70;;;;;;;8.37;60.25;100729.22;4988688;28;124288;-77
2022/02/04 16:20:38;;;;;;;0.95;0.65;;;;;;;8.36;60.01;100749.47;4986389;28;119243;-77
2022/02/04 16:23:11;;;;;;;0.60;0.50;;;;;;;8.33;60.04;100765.41;4970528;28;118686;-77
2022/02/04 16:25:56;;;;;;;0.95;0.65;;;;;;;8.31;60.06;100777.78;4985769;28;123019;-77
2022/02/04 16:31:12;;;;;;;1.95;0.70;;;;;;;8.30;60.51;100786.63;4987829;28;119017;-77
2022/02/04 16:33:41;;;;;;;1.00;0.80;;;;;;;8.28;60.52;100793.72;4989634;28;118251;-77
2022/02/04 16:36:15;;;;;;;1.73;0.80;;;;;;;8.26;60.14;100800.84;4972134;28;123359;-77
2022/02/04 16:38:52;;;;;;;1.67;0.90;;;;;;;8.26;60.50;100811.41;4987552;28;124518;-77
2022/02/04 16:41:27;;;;;;;1.85;0.65;;;;;;;8.26;60.53;100816.66;4988181;28;119692;-77
2022/02/04 16:43:54;;;;;;;;;;;;;;;8.24;60.42;100829.06;4990274;28;117884;-77
2022/02/04 16:46:21;;;;;;;2.85;0.50;;;;;;;8.23;60.41;100843.19;4989679;28;124221;-76
2022/02/04 16:48:48;;;;;;;0.95;0.60;;;;;;;8.21;60.50;100844.97;4987102;28;123425;-77
2022/02/04 16:51:17;;;;;;;1.45;0.60;;;;;;;8.18;60.20;100860.94;4987850;28;120797;-77
2022/02/04 16:53:44;;;;;;;1.00;0.60;;;;;;;8.17;60.61;100875.03;4987893;28;120557;-77
2022/02/04 16:56:11;;;;;;;1.02;0.60;;;;;;;8.15;60.41;100876.88;4989633;28;124286;-77
2022/02/04 16:58:39;;;;;;;2.30;0.60;;;;;;;8.15;60.34;100892.69;4998568;28;123693;-77
2022/02/04 17:01:06;;;;;;;0.95;0.60;;;;;;;8.15;60.53;100900.59;4997857;28;117629;-77
2022/02/04 17:03:33;;;;;;;2.40;0.63;;;;;;;8.15;60.65;100913.81;4973432;28;117219;-77
2022/02/04 17:06:03;;;;;;;1.83;0.60;;;;;;;8.11;60.46;100917.47;4987341;28;123873;-77
2022/02/04 17:08:34;;;;;;;1.00;0.55;;;;;;;8.11;60.36;100917.47;4971061;28;123507;-77
2022/02/04 17:11:11;;;;;;;0.65;0.50;;;;;;;8.10;60.38;100931.53;4987007;28;119285;-77
2022/02/04 17:13:38;;;;;;;1.77;0.45;;;;;;;8.08;60.28;100941.28;4970484;28;118299;-77
2022/02/04 17:16:06;;;;;;;1.40;0.40;;;;;;;8.07;60.68;100951.00;4985639;28;123662;-77
2022/02/04 17:18:37;;;;;;;2.55;0.50;;;;;;;8.06;60.30;100966.84;4987978;28;123574;-77
2022/02/04 17:21:05;;;;;;;3.05;0.70;;;;;;;8.06;60.40;100966.84;4986260;28;118238;-77
2022/02/04 17:23:43;;;;;;;2.65;0.52;;;;;;;8.03;60.21;100967.84;4986670;28;118756;-77
2022/02/04 17:26:11;;;;;;;3.85;0.80;;;;;;;8.03;60.49;100988.09;4986976;28;124034;-77
2022/02/04 17:28:39;;;;;;;3.70;0.75;;;;;;;8.02;60.31;100986.34;4986697;28;124073;-77
2022/02/04 17:31:06;;;;;;;2.17;0.90;;;;;;;7.99;60.22;100988.16;4985719;28;119888;-77
2022/02/04 17:33:33;;;;;;;2.08;0.80;;;;;;;7.99;60.55;100997.88;4987108;28;119308;-77